createdAt,value
2023-05-18T00:02:08.090Z,8.54
2023-05-18T00:04:36.349Z,8.54
2023-05-18T00:07:05.016Z,8.52
2023-05-18T00:09:36.130Z,8.49
2023-05-18T00:12:05.162Z,8.46
2023-05-18T00:14:32.035Z,8.43
2023-05-18T00:17:01.850Z,8.40
2023-05-18T00:19:30.128Z,8.37
2023-05-18T00:21:57.357Z,8.35
2023-05-18T00:24:24.381Z,8.30
2023-05-18T00:26:51.003Z,8.29
2023-05-18T00:29:17.694Z,8.24
2023-05-18T00:31:45.564Z,8.22
2023-05-18T00:34:14.169Z,8.21
2023-05-18T00:36:41.371Z,8.19
2023-05-18T00:39:09.408Z,8.18
2023-05-18T00:41:41.404Z,8.15
2023-05-18T00:44:08.150Z,8.11
2023-05-18T00:46:36.463Z,8.10
2023-05-18T00:49:03.479Z,8.07
2023-05-18T00:51:32.763Z,8.04
2023-05-18T00:54:01.593Z,8.02
2023-05-18T00:56:28.682Z,8.01
2023-05-18T00:58:57.332Z,7.97
2023-05-18T01:01:29.222Z,7.91
2023-05-18T01:03:57.392Z,7.87
2023-05-18T01:06:25.579Z,7.85
2023-05-18T01:08:55.739Z,7.82
2023-05-18T01:11:38.319Z,7.80
2023-05-18T01:14:25.141Z,7.74
2023-05-18T01:16:57.183Z,7.63
2023-05-18T01:20:01.110Z,7.63
2023-05-18T01:22:52.396Z,7.65
2023-05-18T01:25:26.658Z,7.68
2023-05-18T01:27:56.240Z,7.69
2023-05-18T01:30:23.812Z,7.69
2023-05-18T01:32:50.907Z,7.68
2023-05-18T01:35:17.606Z,7.66
2023-05-18T01:37:44.147Z,7.65
2023-05-18T01:40:11.308Z,7.63
2023-05-18T01:42:44.904Z,7.63
2023-05-18T01:45:21.658Z,7.62
2023-05-18T01:47:49.757Z,7.59
2023-05-18T01:50:25.330Z,7.57
2023-05-18T01:52:54.423Z,7.56
2023-05-18T01:55:23.186Z,7.55
2023-05-18T01:57:52.928Z,7.54
2023-05-18T02:00:20.682Z,7.53
2023-05-18T02:02:47.387Z,7.52
2023-05-18T02:05:14.361Z,7.49
2023-05-18T02:07:44.262Z,7.49
2023-05-18T02:10:11.664Z,7.48
2023-05-18T02:12:38.265Z,7.48
2023-05-18T02:15:06.553Z,7.44
2023-05-18T02:17:33.977Z,7.44
2023-05-18T02:20:00.824Z,7.42
2023-05-18T02:22:27.447Z,7.39
2023-05-18T02:24:54.024Z,7.37
2023-05-18T02:27:21.004Z,7.36
2023-05-18T02:29:47.720Z,7.35
2023-05-18T02:32:14.571Z,7.32
2023-05-18T02:34:42.489Z,7.29
2023-05-18T02:37:09.401Z,7.28
2023-05-18T02:39:36.141Z,7.27
2023-05-18T02:44:57.177Z,7.25
2023-05-18T02:47:24.006Z,7.22
2023-05-18T02:49:51.930Z,7.20
2023-05-18T02:52:18.550Z,7.18
2023-05-18T02:54:45.266Z,7.16
2023-05-18T02:57:12.040Z,7.12
2023-05-18T02:59:38.845Z,7.07
2023-05-18T03:02:06.213Z,7.01
2023-05-18T03:04:32.915Z,6.90
2023-05-18T03:07:02.755Z,6.80
2023-05-18T03:09:30.043Z,6.71
2023-05-18T03:11:56.624Z,6.64
2023-05-18T03:14:23.375Z,6.59
2023-05-18T03:16:54.366Z,6.54
2023-05-18T03:19:21.350Z,6.54
2023-05-18T03:21:49.674Z,6.59
2023-05-18T03:24:16.519Z,6.62
2023-05-18T03:26:46.325Z,6.63
2023-05-18T03:29:13.664Z,6.65
2023-05-18T03:31:41.165Z,6.66
2023-05-18T03:34:07.833Z,6.66
2023-05-18T03:36:35.771Z,6.66
2023-05-18T03:39:02.430Z,6.65
2023-05-18T03:41:30.184Z,6.66
2023-05-18T03:43:56.908Z,6.64
2023-05-18T03:46:26.603Z,6.63
2023-05-18T03:48:54.372Z,6.61
2023-05-18T03:51:21.208Z,6.58
2023-05-18T03:53:47.967Z,6.57
2023-05-18T03:56:14.628Z,6.56
2023-05-18T03:58:42.410Z,6.55
2023-05-18T04:01:09.449Z,6.55
2023-05-18T04:03:36.320Z,6.55
2023-05-18T04:06:03.254Z,6.54
2023-05-18T04:08:30.689Z,6.53
2023-05-18T04:10:57.253Z,6.52
2023-05-18T04:13:23.872Z,6.51
2023-05-18T04:15:50.526Z,6.51
2023-05-18T04:18:17.219Z,6.51
2023-05-18T04:20:46.802Z,6.47
2023-05-18T04:23:13.787Z,6.49
2023-05-18T04:25:43.471Z,6.50
2023-05-18T04:28:13.732Z,6.49
2023-05-18T04:33:34.641Z,6.48
2023-05-18T04:36:05.267Z,6.50
2023-05-18T04:38:34.582Z,6.51
2023-05-18T04:41:05.412Z,6.51
2023-05-18T04:43:31.992Z,6.52
2023-05-18T04:45:58.801Z,6.53
2023-05-18T04:48:26.315Z,6.55
2023-05-18T04:50:56.236Z,6.56
2023-05-18T04:53:22.902Z,6.58
2023-05-18T04:55:50.328Z,6.62
2023-05-18T04:58:16.977Z,6.65
2023-05-18T05:00:43.760Z,6.67
2023-05-18T05:03:10.757Z,6.72
2023-05-18T05:05:37.599Z,6.73
2023-05-18T05:08:06.229Z,6.77
2023-05-18T05:10:32.871Z,6.83
2023-05-18T05:12:59.600Z,6.88
2023-05-18T05:15:26.476Z,6.95
2023-05-18T05:17:53.274Z,7.03
2023-05-18T05:20:19.979Z,7.14
2023-05-18T05:22:46.999Z,7.28
2023-05-18T05:25:13.815Z,7.42
2023-05-18T05:27:40.631Z,7.54
2023-05-18T05:30:08.159Z,7.67
2023-05-18T05:32:36.182Z,7.80
2023-05-18T05:35:03.540Z,7.94
2023-05-18T05:37:30.286Z,8.10
2023-05-18T05:39:56.913Z,8.21
2023-05-18T05:42:23.744Z,8.30
2023-05-18T05:44:50.450Z,8.37
2023-05-18T05:47:16.982Z,8.44
2023-05-18T05:49:43.489Z,8.50
2023-05-18T05:52:10.032Z,8.55
2023-05-18T05:54:36.600Z,8.59
2023-05-18T05:57:03.991Z,8.64
2023-05-18T05:59:30.842Z,8.69
2023-05-18T06:01:57.401Z,8.74
2023-05-18T06:04:24.267Z,8.79
2023-05-18T06:06:50.966Z,8.82
2023-05-18T06:09:17.703Z,8.87
2023-05-18T06:11:44.553Z,8.90
2023-05-18T06:14:11.121Z,8.93
2023-05-18T06:16:38.826Z,8.97
2023-05-18T06:19:05.926Z,9.04
2023-05-18T06:21:33.270Z,9.13
2023-05-18T06:24:01.431Z,9.26
2023-05-18T06:26:28.205Z,9.41
2023-05-18T06:28:54.802Z,9.52
2023-05-18T06:31:53.804Z,9.63
2023-05-18T06:34:20.619Z,9.76
2023-05-18T06:36:47.658Z,9.86
2023-05-18T06:39:14.413Z,9.98
2023-05-18T06:41:41.133Z,10.09
2023-05-18T06:44:07.794Z,10.23
2023-05-18T06:46:34.577Z,10.39
2023-05-18T06:49:01.408Z,10.58
2023-05-18T06:51:28.319Z,10.75
2023-05-18T06:53:54.985Z,10.97
2023-05-18T06:56:21.957Z,11.17
2023-05-18T06:58:49.468Z,11.31
2023-05-18T07:01:18.114Z,11.50
2023-05-18T07:03:44.950Z,11.63
2023-05-18T07:06:12.457Z,11.77
2023-05-18T07:08:39.421Z,11.87
2023-05-18T07:11:06.566Z,12.01
2023-05-18T07:13:33.333Z,12.15
2023-05-18T07:15:59.967Z,12.27
2023-05-18T07:18:26.912Z,12.30
2023-05-18T07:20:53.668Z,12.40
2023-05-18T07:23:20.378Z,12.39
2023-05-18T07:25:47.681Z,12.42
2023-05-18T07:28:14.514Z,12.40
2023-05-18T07:30:41.796Z,12.46
2023-05-18T07:33:08.585Z,12.45
2023-05-18T07:35:37.085Z,12.49
2023-05-18T07:38:04.098Z,12.53
2023-05-18T07:40:30.870Z,12.44
2023-05-18T07:42:57.503Z,12.42
2023-05-18T07:45:24.401Z,12.47
2023-05-18T07:47:51.152Z,12.49
2023-05-18T07:50:17.983Z,12.52
2023-05-18T07:52:44.688Z,12.55
2023-05-18T07:55:11.834Z,12.57
2023-05-18T07:57:38.824Z,12.60
2023-05-18T08:00:09.014Z,12.64
2023-05-18T08:02:36.196Z,12.59
2023-05-18T08:05:03.121Z,12.55
2023-05-18T08:07:30.180Z,12.47
2023-05-18T08:09:57.200Z,12.49
2023-05-18T08:12:24.593Z,12.61
2023-05-18T08:14:51.658Z,12.63
2023-05-18T08:17:19.707Z,12.67
2023-05-18T08:19:47.506Z,12.70
2023-05-18T08:22:15.105Z,12.76
2023-05-18T08:24:41.816Z,12.81
2023-05-18T08:27:09.956Z,12.89
2023-05-18T08:29:36.708Z,12.97
2023-05-18T08:32:06.103Z,13.03
2023-05-18T08:34:33.092Z,13.08
2023-05-18T08:37:00.289Z,13.18
2023-05-18T08:39:27.008Z,13.30
2023-05-18T08:42:02.331Z,13.39
2023-05-18T08:44:41.098Z,13.48
2023-05-18T08:47:11.448Z,13.39
2023-05-18T08:49:38.665Z,13.38
2023-05-18T08:52:08.068Z,13.45
2023-05-18T08:54:37.468Z,13.54
2023-05-18T08:57:11.958Z,13.65
2023-05-18T08:59:42.186Z,13.80
2023-05-18T09:02:09.005Z,13.87
2023-05-18T09:04:36.454Z,13.92
2023-05-18T09:07:04.796Z,13.93
2023-05-18T09:09:32.159Z,14.00
2023-05-18T09:11:59.377Z,14.08
2023-05-18T09:14:26.740Z,14.14
2023-05-18T09:16:53.882Z,14.17
2023-05-18T09:19:20.969Z,14.22
2023-05-18T09:21:48.000Z,14.28
2023-05-18T09:24:15.367Z,14.28
2023-05-18T09:26:42.044Z,14.30
2023-05-18T09:29:19.773Z,14.34
2023-05-18T09:31:47.649Z,14.37
2023-05-18T09:34:15.067Z,14.39
2023-05-18T09:36:43.059Z,14.52
2023-05-18T09:39:10.591Z,14.40
2023-05-18T09:41:41.485Z,14.41
2023-05-18T09:44:10.455Z,14.48
2023-05-18T09:46:39.733Z,14.52
2023-05-18T09:49:07.850Z,14.33
2023-05-18T09:51:37.574Z,14.38
2023-05-18T09:54:05.348Z,14.41
2023-05-18T09:56:35.850Z,14.43
2023-05-18T09:59:14.118Z,14.47
2023-05-18T10:02:05.832Z,14.54
2023-05-18T10:04:40.686Z,14.57
2023-05-18T10:07:12.681Z,14.70
2023-05-18T10:09:40.984Z,14.78
2023-05-18T10:12:14.835Z,14.82
2023-05-18T10:14:43.060Z,14.86
2023-05-18T10:17:15.800Z,14.89
2023-05-18T10:19:45.391Z,14.94
2023-05-18T10:22:23.717Z,14.87
2023-05-18T10:24:53.016Z,14.82
2023-05-18T10:27:25.698Z,14.74
2023-05-18T10:29:54.703Z,14.85
2023-05-18T10:32:24.284Z,14.98
2023-05-18T10:34:54.131Z,15.06
2023-05-18T10:37:23.781Z,15.12
2023-05-18T10:39:56.027Z,15.22
2023-05-18T10:46:18.596Z,15.33
2023-05-18T10:48:48.516Z,15.34
2023-05-18T10:51:15.371Z,15.35
2023-05-18T10:53:43.996Z,15.32
2023-05-18T10:56:10.658Z,15.32
2023-05-18T10:58:38.636Z,15.44
2023-05-18T11:01:09.334Z,15.48
2023-05-18T11:03:38.360Z,15.51
2023-05-18T11:06:14.799Z,15.54
2023-05-18T11:08:47.471Z,15.48
2023-05-18T11:11:16.466Z,15.42
2023-05-18T11:13:49.228Z,15.50
2023-05-18T11:16:17.566Z,15.53
2023-05-18T11:18:49.862Z,15.56
2023-05-18T11:21:41.608Z,15.59
2023-05-18T11:24:30.692Z,15.70
2023-05-18T11:27:05.453Z,15.72
2023-05-18T11:29:34.983Z,15.67
2023-05-18T11:32:02.699Z,15.63
2023-05-18T11:34:47.678Z,15.69
2023-05-18T11:37:16.480Z,15.72
2023-05-18T11:40:00.161Z,15.84
2023-05-18T11:42:34.076Z,15.86
2023-05-18T11:45:11.531Z,15.93
2023-05-18T11:47:42.012Z,15.96
2023-05-18T11:50:12.065Z,16.04
2023-05-18T11:52:52.436Z,16.07
2023-05-18T11:55:21.048Z,16.17
2023-05-18T11:57:54.972Z,16.26
2023-05-18T12:00:24.251Z,16.29
2023-05-18T12:02:52.835Z,16.28
2023-05-18T12:05:20.098Z,16.38
2023-05-18T12:07:52.461Z,16.46
2023-05-18T12:10:21.861Z,16.53
2023-05-18T12:12:52.118Z,16.68
2023-05-18T12:15:22.565Z,16.35
2023-05-18T12:17:51.500Z,16.40
2023-05-18T12:20:25.404Z,16.48
2023-05-18T12:22:53.904Z,16.54
2023-05-18T12:25:23.338Z,16.53
2023-05-18T12:27:52.075Z,16.65
2023-05-18T12:30:20.950Z,16.78
2023-05-18T12:32:56.089Z,16.91
2023-05-18T12:35:33.732Z,16.97
2023-05-18T12:38:01.508Z,17.04
2023-05-18T12:40:42.824Z,17.11
2023-05-18T12:43:09.399Z,17.15
2023-05-18T12:45:36.150Z,17.29
2023-05-18T12:48:07.285Z,17.34
2023-05-18T12:50:35.043Z,17.22
2023-05-18T12:53:01.977Z,17.06
2023-05-18T12:55:34.942Z,17.16
2023-05-18T12:58:04.170Z,17.26
2023-05-18T13:00:37.286Z,17.27
2023-05-18T13:03:15.635Z,17.33
2023-05-18T13:05:46.141Z,17.39
2023-05-18T13:08:21.965Z,17.39
2023-05-18T13:10:55.577Z,17.41
2023-05-18T13:13:32.470Z,17.48
2023-05-18T13:16:01.148Z,17.47
2023-05-18T13:18:28.343Z,17.51
2023-05-18T13:20:57.100Z,17.62
2023-05-18T13:23:27.081Z,17.47
2023-05-18T13:25:55.528Z,17.38
2023-05-18T13:28:23.738Z,17.47
2023-05-18T13:31:22.593Z,17.52
2023-05-18T13:33:50.532Z,17.62
2023-05-18T13:36:18.310Z,17.67
2023-05-18T13:38:45.143Z,17.70
2023-05-18T13:41:14.873Z,17.73
2023-05-18T13:43:42.814Z,17.79
2023-05-18T13:46:09.893Z,17.83
2023-05-18T13:48:36.538Z,17.91
2023-05-18T13:51:03.322Z,17.96
2023-05-18T13:53:30.207Z,18.03
2023-05-18T13:58:51.029Z,18.04
2023-05-18T14:01:18.006Z,18.10
2023-05-18T14:03:44.777Z,18.12
2023-05-18T14:06:11.609Z,18.17
2023-05-18T14:08:38.192Z,18.23
2023-05-18T14:11:05.081Z,18.23
2023-05-18T14:13:31.693Z,18.23
2023-05-18T14:15:58.405Z,18.29
2023-05-18T14:18:25.030Z,18.31
2023-05-18T14:20:51.728Z,18.34
2023-05-18T14:23:18.217Z,18.38
2023-05-18T14:28:40.066Z,18.41
2023-05-18T14:31:06.619Z,18.49
2023-05-18T14:33:33.278Z,18.54
2023-05-18T14:38:54.738Z,18.66
2023-05-18T14:41:24.230Z,18.55
2023-05-18T14:43:53.208Z,18.48
2023-05-18T14:46:20.474Z,18.49
2023-05-18T14:48:46.982Z,18.54
2023-05-18T14:51:13.799Z,18.54
2023-05-18T14:53:40.410Z,18.58
2023-05-18T14:56:09.185Z,18.58
2023-05-18T14:58:36.301Z,18.60
2023-05-18T15:03:57.722Z,18.61
2023-05-18T15:06:26.425Z,18.63
2023-05-18T15:08:53.042Z,18.65
2023-05-18T15:11:21.061Z,18.63
2023-05-18T15:13:47.971Z,18.57
2023-05-18T15:16:14.993Z,18.57
2023-05-18T15:18:41.899Z,18.60
2023-05-18T15:21:08.485Z,18.63
2023-05-18T15:23:35.143Z,18.67
2023-05-18T15:26:01.812Z,18.69
2023-05-18T15:28:28.449Z,18.72
2023-05-18T15:30:56.787Z,18.68
2023-05-18T15:33:23.368Z,18.73
2023-05-18T15:35:50.008Z,18.64
2023-05-18T15:38:16.630Z,18.75
2023-05-18T15:40:46.706Z,18.54
2023-05-18T15:43:13.706Z,18.37
2023-05-18T15:45:40.347Z,18.18
2023-05-18T15:48:07.234Z,18.07
2023-05-18T15:50:33.961Z,18.12
2023-05-18T15:53:00.480Z,18.16
2023-05-18T15:58:21.730Z,18.28
2023-05-18T16:03:42.979Z,18.30
2023-05-18T16:06:09.712Z,18.32
2023-05-18T16:08:36.530Z,18.35
2023-05-18T16:11:05.382Z,18.32
2023-05-18T16:13:32.200Z,18.23
2023-05-18T16:15:58.792Z,18.22
2023-05-18T16:18:25.484Z,18.24
2023-05-18T16:20:52.504Z,18.09
2023-05-18T16:23:19.073Z,18.15
2023-05-18T16:28:40.153Z,18.27
2023-05-18T16:31:10.992Z,18.32
2023-05-18T16:33:39.934Z,18.34
2023-05-18T16:36:07.261Z,18.33
2023-05-18T16:38:35.801Z,18.34
2023-05-18T16:41:02.827Z,18.36
2023-05-18T16:43:29.637Z,18.37
2023-05-18T16:45:56.545Z,18.36
2023-05-18T16:48:23.317Z,18.37
2023-05-18T16:50:54.867Z,18.34
2023-05-18T16:53:21.577Z,18.31
2023-05-18T16:55:48.650Z,18.27
2023-05-18T16:58:15.308Z,18.30
2023-05-18T17:00:42.504Z,18.31
2023-05-18T17:03:09.512Z,18.35
2023-05-18T17:05:36.937Z,18.35
2023-05-18T17:08:03.688Z,18.34
2023-05-18T17:10:33.276Z,18.31
2023-05-18T17:13:00.187Z,18.29
2023-05-18T17:15:26.811Z,18.34
2023-05-18T17:17:53.628Z,18.31
2023-05-18T17:20:20.261Z,18.31
2023-05-18T17:22:46.924Z,18.33
2023-05-18T17:25:13.461Z,18.29
2023-05-18T17:27:40.234Z,18.29
2023-05-18T17:30:07.506Z,18.27
2023-05-18T17:32:34.337Z,18.21
2023-05-18T17:35:01.683Z,18.16
2023-05-18T17:37:28.311Z,18.24
2023-05-18T17:39:55.158Z,18.24
2023-05-18T17:42:21.967Z,18.24
2023-05-18T17:44:48.709Z,18.22
2023-05-18T17:47:17.054Z,18.23
2023-05-18T17:49:43.742Z,18.20
2023-05-18T17:52:10.387Z,18.14
2023-05-18T17:54:36.916Z,18.14
2023-05-18T17:57:04.087Z,18.10
2023-05-18T17:59:30.733Z,18.09
2023-05-18T18:01:57.545Z,18.09
2023-05-18T18:04:24.444Z,18.06
2023-05-18T18:06:54.466Z,18.02
2023-05-18T18:09:22.335Z,17.98
2023-05-18T18:11:49.199Z,17.94
2023-05-18T18:14:17.388Z,17.94
2023-05-18T18:16:44.511Z,17.93
2023-05-18T18:19:11.189Z,17.91
2023-05-18T18:21:37.905Z,17.80
2023-05-18T18:24:04.917Z,17.75
2023-05-18T18:26:32.299Z,17.63
2023-05-18T18:28:58.938Z,17.63
2023-05-18T18:31:25.860Z,17.65
2023-05-18T18:33:52.549Z,17.66
2023-05-18T18:36:19.195Z,17.66
2023-05-18T18:38:46.160Z,17.66
2023-05-18T18:41:15.248Z,17.64
2023-05-18T18:43:41.939Z,17.62
2023-05-18T18:46:08.842Z,17.60
2023-05-18T18:48:36.063Z,17.58
2023-05-18T18:51:02.703Z,17.58
2023-05-18T18:53:29.390Z,17.56
2023-05-18T18:55:57.411Z,17.53
2023-05-18T18:58:24.583Z,17.52
2023-05-18T19:00:51.131Z,17.49
2023-05-18T19:03:17.730Z,17.49
2023-05-18T19:05:44.382Z,17.48
2023-05-18T19:08:11.082Z,17.48
2023-05-18T19:10:37.712Z,17.45
2023-05-18T19:13:07.171Z,17.42
2023-05-18T19:15:34.566Z,17.39
2023-05-18T19:18:01.768Z,17.35
2023-05-18T19:20:29.056Z,17.29
2023-05-18T19:22:55.892Z,17.24
2023-05-18T19:25:24.590Z,17.19
2023-05-18T19:27:52.351Z,17.18
2023-05-18T19:30:21.647Z,17.14
2023-05-18T19:32:50.392Z,17.09
2023-05-18T19:35:19.786Z,17.09
2023-05-18T19:37:47.492Z,17.05
2023-05-18T19:40:14.404Z,16.98
2023-05-18T19:42:41.169Z,16.94
2023-05-18T19:45:08.563Z,16.85
2023-05-18T19:47:36.399Z,16.83
2023-05-18T19:50:04.244Z,16.80
2023-05-18T19:52:31.386Z,16.76
2023-05-18T19:54:58.186Z,16.74
2023-05-18T19:57:26.475Z,16.70
2023-05-18T19:59:53.778Z,16.68
2023-05-18T20:02:20.484Z,16.61
2023-05-18T20:04:48.485Z,16.52
2023-05-18T20:07:15.241Z,16.42
2023-05-18T20:09:41.804Z,16.30
2023-05-18T20:12:08.655Z,16.15
2023-05-18T20:14:36.961Z,16.02
2023-05-18T20:17:04.426Z,15.86
2023-05-18T20:19:32.840Z,15.72
2023-05-18T20:21:59.551Z,15.60
2023-05-18T20:24:26.326Z,15.46
2023-05-18T20:26:53.153Z,15.31
2023-05-18T20:29:19.828Z,15.24
2023-05-18T20:31:46.585Z,15.13
2023-05-18T20:34:13.359Z,15.03
2023-05-18T20:36:39.997Z,14.93
2023-05-18T20:39:07.378Z,14.84
2023-05-18T20:41:34.101Z,14.75
2023-05-18T20:44:02.079Z,14.69
2023-05-18T20:46:31.196Z,14.62
2023-05-18T20:48:57.993Z,14.53
2023-05-18T20:51:24.881Z,14.47
2023-05-18T20:53:51.869Z,14.39
2023-05-18T20:56:18.924Z,14.33
2023-05-18T20:58:49.625Z,14.25
2023-05-18T21:01:16.958Z,14.18
2023-05-18T21:03:45.181Z,14.12
2023-05-18T21:06:15.911Z,14.06
2023-05-18T21:08:45.543Z,14.00
2023-05-18T21:11:12.127Z,13.94
2023-05-18T21:13:38.852Z,13.88
2023-05-18T21:16:06.772Z,13.79
2023-05-18T21:18:34.429Z,13.73
2023-05-18T21:21:02.087Z,13.69
2023-05-18T21:23:28.757Z,13.64
2023-05-18T21:25:56.873Z,13.55
2023-05-18T21:28:25.125Z,13.46
2023-05-18T21:30:52.342Z,13.40
2023-05-18T21:33:19.414Z,13.35
2023-05-18T21:35:46.303Z,13.32
2023-05-18T21:38:13.069Z,13.26
2023-05-18T21:40:42.081Z,13.22
2023-05-18T21:43:10.033Z,13.17
2023-05-18T21:45:36.719Z,13.12
2023-05-18T21:48:03.609Z,13.07
2023-05-18T21:50:34.867Z,13.04
2023-05-18T21:53:03.637Z,13.00
2023-05-18T21:55:31.572Z,12.93
2023-05-18T21:57:58.323Z,12.88
2023-05-18T22:00:25.254Z,12.82
2023-05-18T22:02:52.017Z,12.79
2023-05-18T22:05:19.298Z,12.76
2023-05-18T22:07:46.181Z,12.71
2023-05-18T22:10:12.796Z,12.67
2023-05-18T22:12:41.165Z,12.63
2023-05-18T22:15:08.797Z,12.57
2023-05-18T22:17:36.760Z,12.52
2023-05-18T22:20:06.595Z,12.48
2023-05-18T22:22:33.192Z,12.45
2023-05-18T22:24:59.786Z,12.41
2023-05-18T22:27:26.736Z,12.37
2023-05-18T22:29:53.408Z,12.32
2023-05-18T22:32:20.078Z,12.27
2023-05-18T22:34:46.906Z,12.23
2023-05-18T22:37:13.651Z,12.19
2023-05-18T22:39:40.465Z,12.16
2023-05-18T22:42:07.246Z,12.08
2023-05-18T22:44:33.921Z,12.02
2023-05-18T22:47:00.650Z,11.99
2023-05-18T22:49:27.217Z,11.95
2023-05-18T22:51:54.040Z,11.91
2023-05-18T22:54:20.594Z,11.88
2023-05-18T22:56:47.260Z,11.84
2023-05-18T22:59:13.981Z,11.81
2023-05-18T23:01:40.717Z,11.78
2023-05-18T23:04:07.418Z,11.77
2023-05-18T23:06:34.719Z,11.73
2023-05-18T23:09:01.404Z,11.68
2023-05-18T23:11:28.837Z,11.62
2023-05-18T23:13:55.517Z,11.57
2023-05-18T23:16:24.111Z,11.54
2023-05-18T23:18:53.731Z,11.51
2023-05-18T23:21:21.849Z,11.48
2023-05-18T23:23:48.482Z,11.45
2023-05-18T23:26:15.271Z,11.41
2023-05-18T23:28:41.924Z,11.37
2023-05-18T23:34:02.848Z,11.19
2023-05-18T23:36:32.047Z,11.09
2023-05-18T23:38:59.956Z,11.05
2023-05-18T23:41:30.383Z,10.98
2023-05-18T23:43:57.775Z,10.90
2023-05-18T23:46:24.651Z,10.81
2023-05-18T23:48:54.866Z,10.70
2023-05-18T23:51:21.738Z,10.62
2023-05-18T23:53:50.264Z,10.56
2023-05-18T23:56:17.705Z,10.49
2023-05-18T23:58:46.858Z,10.49
